Time,TemperatureF,DewpointF,PressureIn,WindDirection,WindDirectionDegrees,WindSpeedMPH,WindSpeedGustMPH,Humidity,HourlyPrecipIn,Conditions,Clouds,dailyrainin,SoftwareType,DateUTC
2013-04-29 00:01:00,63.0,61.5,29.85,SE,135,0.0,0.0,95,0.00,RA,,0.00,WeatherDisplay:10.37,2013-04-29 05:01:00,
2013-04-29 00:06:00,63.0,61.5,29.85,SE,135,0.0,0.0,95,0.00,RA,,0.00,WeatherDisplay:10.37,2013-04-29 05:06:00,
2013-04-29 00:11:00,62.8,61.3,29.85,SE,135,0.0,0.0,95,0.00,CLR,,0.00,WeatherDisplay:10.37,2013-04-29 05:11:00,
2013-04-29 00:16:00,62.6,61.1,29.85,SE,135,0.0,0.0,95,0.00,CLR,,0.00,WeatherDisplay:10.37,2013-04-29 05:16:00,
2013-04-29 00:21:00,62.6,61.1,29.85,North,0,0.0,0.0,95,0.00,CLR,,0.00,WeatherDisplay:10.37,2013-04-29 05:21:00,
2013-04-29 00:26:00,62.6,61.1,29.85,NW,315,0.0,0.0,95,0.00,CLR,,0.00,WeatherDisplay:10.37,2013-04-29 05:26:00,
2013-04-29 00:31:00,62.4,61.0,29.85,NW,315,0.0,0.0,95,0.00,CLR,,0.00,WeatherDisplay:10.37,2013-04-29 05:31:00,
2013-04-29 00:36:00,62.6,61.1,29.85,SE,135,0.0,0.0,95,0.00,CLR,,0.00,WeatherDisplay:10.37,2013-04-29 05:36:00,
2013-04-29 00:41:00,62.6,61.1,29.85,NE,45,0.0,0.0,95,0.00,CLR,,0.00,WeatherDisplay:10.37,2013-04-29 05:41:00,
2013-04-29 00:46:00,62.6,61.1,29.85,NE,45,0.0,0.0,95,0.00,CLR,,0.00,WeatherDisplay:10.37,2013-04-29 05:46:00,
2013-04-29 00:51:00,62.6,61.1,29.85,NE,45,0.0,0.0,95,0.00,CLR,,0.00,WeatherDisplay:10.37,2013-04-29 05:51:00,
2013-04-29 00:56:00,62.4,61.0,29.85,NE,45,0.0,0.0,95,0.00,CLR,,0.00,WeatherDisplay:10.37,2013-04-29 05:56:00,
2013-04-29 01:01:00,62.2,60.8,29.85,NE,45,0.0,0.0,95,0.00,CLR,,0.00,WeatherDisplay:10.37,2013-04-29 06:01:00,
2013-04-29 01:06:00,62.2,60.8,29.84,NE,45,0.0,0.0,95,0.00,CLR,,0.00,WeatherDisplay:10.37,2013-04-29 06:06:00,
2013-04-29 01:11:00,62.1,60.6,29.85,NE,45,0.0,0.0,95,0.00,CLR,,0.00,WeatherDisplay:10.37,2013-04-29 06:11:00,
2013-04-29 01:16:00,62.1,60.6,29.85,NE,45,0.0,0.0,95,0.00,CLR,,0.00,WeatherDisplay:10.37,2013-04-29 06:16:00,
2013-04-29 01:21:00,62.1,60.9,29.85,NE,45,0.0,0.0,96,0.00,CLR,,0.00,WeatherDisplay:10.37,2013-04-29 06:21:00,
2013-04-29 01:26:00,62.1,60.9,29.84,West,270,0.0,0.0,96,0.00,CLR,,0.00,WeatherDisplay:10.37,2013-04-29 06:26:00,
2013-04-29 01:31:00,61.9,60.7,29.84,West,270,0.0,0.0,96,0.00,CLR,,0.00,WeatherDisplay:10.37,2013-04-29 06:31:00,
2013-04-29 01:36:00,61.9,60.7,29.84,West,270,0.0,0.0,96,0.00,CLR,,0.00,WeatherDisplay:10.37,2013-04-29 06:36:00,
2013-04-29 01:41:00,61.7,60.5,29.84,West,270,0.0,0.0,96,0.00,CLR,,0.00,WeatherDisplay:10.37,2013-04-29 06:41:00,
2013-04-29 01:46:00,61.7,60.5,29.84,West,270,0.0,0.0,96,0.00,CLR,,0.00,WeatherDisplay:10.37,2013-04-29 06:46:00,
2013-04-29 01:51:00,61.7,60.5,29.83,West,270,0.0,0.0,96,0.00,CLR,,0.00,WeatherDisplay:10.37,2013-04-29 06:51:00,
2013-04-29 01:56:00,61.5,60.4,29.83,West,270,0.0,0.0,96,0.00,CLR,,0.00,WeatherDisplay:10.37,2013-04-29 06:56:00,
2013-04-29 02:01:00,61.5,60.4,29.83,West,270,0.0,0.0,96,0.00,CLR,,0.00,WeatherDisplay:10.37,2013-04-29 07:01:00,
2013-04-29 02:06:00,61.5,60.4,29.83,West,270,0.0,0.0,96,0.00,CLR,,0.00,WeatherDisplay:10.37,2013-04-29 07:06:00,
2013-04-29 02:11:00,61.5,60.4,29.83,West,270,0.0,0.0,96,0.00,CLR,,0.00,WeatherDisplay:10.37,2013-04-29 07:11:00,
2013-04-29 02:16:00,61.5,60.4,29.83,West,270,0.0,0.0,96,0.00,CLR,,0.00,WeatherDisplay:10.37,2013-04-29 07:16:00,
2013-04-29 02:21:00,61.3,60.2,29.83,West,270,0.0,0.0,96,0.00,CLR,,0.00,WeatherDisplay:10.37,2013-04-29 07:21:00,
2013-04-29 02:26:00,61.3,60.2,29.83,West,270,0.0,0.0,96,0.00,CLR,,0.00,WeatherDisplay:10.37,2013-04-29 07:26:00,
2013-04-29 02:31:00,61.3,60.2,29.83,West,270,0.0,0.0,96,0.00,CLR,,0.00,WeatherDisplay:10.37,2013-04-29 07:31:00,
2013-04-29 02:36:00,61.2,60.0,29.83,West,270,0.0,0.0,96,0.00,CLR,,0.00,WeatherDisplay:10.37,2013-04-29 07:36:00,
2013-04-29 02:41:00,61.2,60.0,29.82,West,270,0.0,0.0,96,0.00,CLR,,0.00,WeatherDisplay:10.37,2013-04-29 07:41:00,
2013-04-29 02:46:00,61.2,60.0,29.82,West,270,0.0,0.0,96,0.00,CLR,,0.00,WeatherDisplay:10.37,2013-04-29 07:46:00,
2013-04-29 02:51:00,61.2,60.0,29.82,West,270,0.0,0.0,96,0.00,CLR,,0.00,WeatherDisplay:10.37,2013-04-29 07:51:00,
2013-04-29 02:56:00,61.0,59.8,29.82,West,270,0.0,0.0,96,0.00,CLR,,0.00,WeatherDisplay:10.37,2013-04-29 07:56:00,
2013-04-29 03:01:00,61.0,59.8,29.82,West,270,0.0,0.0,96,0.00,CLR,,0.00,WeatherDisplay:10.37,2013-04-29 08:01:00,
2013-04-29 03:06:00,61.0,59.8,29.82,West,270,0.0,0.0,96,0.00,CLR,,0.00,WeatherDisplay:10.37,2013-04-29 08:06:00,
2013-04-29 03:11:00,61.0,59.8,29.82,East,90,0.0,0.0,96,0.00,CLR,,0.00,WeatherDisplay:10.37,2013-04-29 08:11:00,
2013-04-29 03:16:00,61.0,59.8,29.82,East,90,0.0,0.0,96,0.00,CLR,,0.00,WeatherDisplay:10.37,2013-04-29 08:16:00,
2013-04-29 03:21:00,61.2,60.0,29.81,East,90,0.0,0.0,96,0.00,CLR,,0.00,WeatherDisplay:10.37,2013-04-29 08:21:00,
2013-04-29 03:26:00,61.3,60.5,29.81,East,90,0.0,0.0,97,0.00,CLR,,0.00,WeatherDisplay:10.37,2013-04-29 08:26:00,
2013-04-29 03:31:00,61.5,60.4,29.81,East,90,0.0,0.0,96,0.00,CLR,,0.00,WeatherDisplay:10.37,2013-04-29 08:31:00,
2013-04-29 03:36:00,61.7,60.8,29.81,East,90,0.0,0.0,97,0.00,CLR,,0.00,WeatherDisplay:10.37,2013-04-29 08:36:00,
2013-04-29 03:41:00,61.7,60.8,29.81,East,90,0.0,0.0,97,0.00,CLR,,0.00,WeatherDisplay:10.37,2013-04-29 08:41:00,
2013-04-29 03:46:00,61.9,61.0,29.81,SE,135,0.0,0.0,97,0.00,CLR,,0.00,WeatherDisplay:10.37,2013-04-29 08:46:00,
2013-04-29 03:51:00,61.9,61.0,29.81,SE,135,0.0,0.0,97,0.00,CLR,,0.00,WeatherDisplay:10.37,2013-04-29 08:51:00,
2013-04-29 03:56:00,61.9,61.0,29.81,SE,135,0.0,0.0,97,0.00,CLR,,0.00,WeatherDisplay:10.37,2013-04-29 08:56:00,
2013-04-29 04:01:00,61.9,61.0,29.81,SE,135,0.0,0.0,97,0.00,CLR,,0.00,WeatherDisplay:10.37,2013-04-29 09:01:00,
2013-04-29 04:06:00,61.9,61.0,29.81,SE,135,0.0,0.0,97,0.00,CLR,,0.00,WeatherDisplay:10.37,2013-04-29 09:06:00,
2013-04-29 04:11:00,61.9,61.0,29.81,SE,135,0.0,0.0,97,0.00,CLR,,0.00,WeatherDisplay:10.37,2013-04-29 09:11:00,
2013-04-29 04:16:00,62.1,61.2,29.81,SE,135,0.0,0.0,97,0.00,CLR,,0.00,WeatherDisplay:10.37,2013-04-29 09:16:00,
2013-04-29 04:21:00,62.1,61.2,29.81,SE,135,0.0,0.0,97,0.00,CLR,,0.00,WeatherDisplay:10.37,2013-04-29 09:21:00,
2013-04-29 04:26:00,62.1,61.2,29.81,West,270,0.0,0.0,97,0.00,CLR,,0.00,WeatherDisplay:10.37,2013-04-29 09:26:00,
2013-04-29 04:31:00,62.1,61.2,29.81,West,270,0.0,0.0,97,0.00,CLR,,0.00,WeatherDisplay:10.37,2013-04-29 09:31:00,
2013-04-29 04:36:00,62.2,61.4,29.81,West,270,0.0,0.0,97,0.00,CLR,,0.00,WeatherDisplay:10.37,2013-04-29 09:36:00,
2013-04-29 04:41:00,62.2,61.4,29.81,West,270,0.0,0.0,97,0.00,CLR,,0.00,WeatherDisplay:10.37,2013-04-29 09:41:00,
2013-04-29 04:46:00,62.2,61.4,29.81,West,270,0.0,0.0,97,0.00,CLR,,0.00,WeatherDisplay:10.37,2013-04-29 09:46:00,
2013-04-29 04:51:00,62.4,61.6,29.81,SE,135,0.0,0.0,97,0.00,CLR,,0.00,WeatherDisplay:10.37,2013-04-29 09:51:00,
2013-04-29 04:56:00,62.4,61.6,29.81,SE,135,0.0,0.0,97,0.00,CLR,,0.00,WeatherDisplay:10.37,2013-04-29 09:56:00,
2013-04-29 05:01:00,62.6,61.7,29.81,SE,135,0.0,0.0,97,0.00,CLR,,0.00,WeatherDisplay:10.37,2013-04-29 10:01:00,
2013-04-29 05:06:00,62.6,61.7,29.81,SE,135,0.0,0.0,97,0.00,CLR,,0.00,WeatherDisplay:10.37,2013-04-29 10:06:00,
2013-04-29 05:11:00,62.8,61.9,29.82,SE,135,0.0,0.0,97,0.00,CLR,,0.00,WeatherDisplay:10.37,2013-04-29 10:11:00,
2013-04-29 05:16:00,63.0,62.1,29.82,NE,45,1.1,0.0,97,0.00,CLR,,0.00,WeatherDisplay:10.37,2013-04-29 10:16:00,
2013-04-29 05:21:00,62.8,61.9,29.82,NE,45,0.0,0.0,97,0.00,CLR,,0.00,WeatherDisplay:10.37,2013-04-29 10:21:00,
2013-04-29 05:26:00,63.1,62.3,29.82,NE,45,0.0,0.0,97,0.00,CLR,,0.00,WeatherDisplay:10.37,2013-04-29 10:26:00,
2013-04-29 05:31:00,63.1,62.3,29.82,NE,45,0.0,0.0,97,0.00,CLR,,0.00,WeatherDisplay:10.37,2013-04-29 10:31:00,
2013-04-29 05:36:00,63.1,62.3,29.83,South,180,1.1,0.0,97,0.00,CLR,,0.00,WeatherDisplay:10.37,2013-04-29 10:36:00,
2013-04-29 05:41:00,63.3,62.5,29.83,South,180,0.0,0.0,97,0.00,CLR,,0.00,WeatherDisplay:10.37,2013-04-29 10:41:00,
2013-04-29 05:46:00,63.3,62.5,29.83,South,180,0.0,0.0,97,0.00,CLR,,0.00,WeatherDisplay:10.37,2013-04-29 10:46:00,
2013-04-29 05:51:00,63.3,62.5,29.83,South,180,0.0,0.0,97,0.00,CLR,,0.00,WeatherDisplay:10.37,2013-04-29 10:51:00,
2013-04-29 05:56:00,63.3,62.7,29.83,South,180,0.0,0.0,98,0.00,CLR,,0.00,WeatherDisplay:10.37,2013-04-29 10:56:00,
2013-04-29 06:01:00,63.3,62.5,29.83,South,180,0.0,0.0,97,0.00,CLR,,0.00,WeatherDisplay:10.37,2013-04-29 11:01:00,
2013-04-29 06:06:00,63.3,62.5,29.83,South,180,0.0,0.0,97,0.00,CLR,,0.00,WeatherDisplay:10.37,2013-04-29 11:06:00,
2013-04-29 06:11:00,63.3,62.7,29.83,SE,135,1.1,0.0,98,0.00,CLR,,0.00,WeatherDisplay:10.37,2013-04-29 11:11:00,
2013-04-29 06:16:00,63.3,62.7,29.83,SE,135,0.0,0.0,98,0.00,CLR,,0.00,WeatherDisplay:10.37,2013-04-29 11:16:00,
2013-04-29 06:21:00,63.3,62.7,29.83,SE,135,1.1,0.0,98,0.00,CLR,,0.00,WeatherDisplay:10.37,2013-04-29 11:21:00,
2013-04-29 06:26:00,63.3,62.5,29.83,South,180,1.1,0.0,97,0.00,CLR,,0.00,WeatherDisplay:10.37,2013-04-29 11:26:00,
2013-04-29 06:31:00,63.1,62.3,29.84,South,180,0.0,0.0,97,0.00,CLR,,0.00,WeatherDisplay:10.37,2013-04-29 11:31:00,
2013-04-29 06:36:00,63.1,62.6,29.84,South,180,0.0,0.0,98,0.00,CLR,,0.00,WeatherDisplay:10.37,2013-04-29 11:36:00,
2013-04-29 06:41:00,63.3,62.7,29.84,South,180,0.0,0.0,98,0.00,CLR,,0.00,WeatherDisplay:10.37,2013-04-29 11:41:00,
2013-04-29 06:46:00,63.1,62.6,29.84,South,180,0.0,0.0,98,0.00,CLR,,0.00,WeatherDisplay:10.37,2013-04-29 11:46:00,
2013-04-29 06:51:00,63.1,62.6,29.84,South,180,0.0,0.0,98,0.00,CLR,,0.00,WeatherDisplay:10.37,2013-04-29 11:51:00,
2013-04-29 06:56:00,63.1,62.6,29.85,South,180,0.0,0.0,98,0.00,CLR,,0.00,WeatherDisplay:10.37,2013-04-29 11:56:00,
2013-04-29 07:01:00,63.3,62.7,29.85,South,180,0.0,0.0,98,0.00,CLR,,0.00,WeatherDisplay:10.37,2013-04-29 12:01:00,
2013-04-29 07:06:00,63.3,62.7,29.86,South,180,0.0,0.0,98,0.00,CLR,,0.00,WeatherDisplay:10.37,2013-04-29 12:06:00,
2013-04-29 07:11:00,63.1,62.6,29.86,SE,135,2.3,0.0,98,0.00,CLR,,0.00,WeatherDisplay:10.37,2013-04-29 12:11:00,
2013-04-29 07:16:00,63.3,62.7,29.86,SE,135,0.0,0.0,98,0.00,CLR,,0.00,WeatherDisplay:10.37,2013-04-29 12:16:00,
2013-04-29 07:21:00,63.3,62.7,29.86,SE,135,1.1,0.0,98,0.00,CLR,,0.00,WeatherDisplay:10.37,2013-04-29 12:21:00,
2013-04-29 07:26:00,63.3,62.7,29.86,SE,135,0.0,0.0,98,0.00,CLR,,0.00,WeatherDisplay:10.37,2013-04-29 12:26:00,
2013-04-29 07:31:00,63.5,62.9,29.87,NE,45,1.1,0.0,98,0.00,CLR,,0.00,WeatherDisplay:10.37,2013-04-29 12:31:00,
2013-04-29 07:36:00,63.7,63.1,29.87,North,0,1.1,0.0,98,0.00,CLR,,0.00,WeatherDisplay:10.37,2013-04-29 12:36:00,
2013-04-29 07:41:00,63.7,63.1,29.87,SE,135,1.1,0.0,98,0.00,CLR,,0.00,WeatherDisplay:10.37,2013-04-29 12:41:00,
2013-04-29 07:46:00,63.9,63.3,29.86,SE,135,1.1,0.0,98,0.00,CLR,,0.00,WeatherDisplay:10.37,2013-04-29 12:46:00,
2013-04-29 07:51:00,63.9,63.3,29.87,SE,135,0.0,0.0,98,0.00,CLR,,0.00,WeatherDisplay:10.37,2013-04-29 12:51:00,
2013-04-29 07:56:00,64.0,63.5,29.87,SE,135,1.1,0.0,98,0.00,CLR,,0.00,WeatherDisplay:10.37,2013-04-29 12:56:00,
2013-04-29 08:01:00,64.0,63.5,29.87,North,0,1.1,0.0,98,0.00,CLR,,0.00,WeatherDisplay:10.37,2013-04-29 13:01:00,
2013-04-29 08:06:00,64.2,63.6,29.87,SW,225,1.1,0.0,98,0.00,CLR,,0.00,WeatherDisplay:10.37,2013-04-29 13:06:00,
2013-04-29 08:11:00,64.4,63.8,29.87,West,270,2.3,2.3,98,0.00,CLR,,0.00,WeatherDisplay:10.37,2013-04-29 13:11:00,
2013-04-29 08:16:00,64.6,64.0,29.87,SE,135,0.0,0.0,98,0.00,CLR,,0.00,WeatherDisplay:10.37,2013-04-29 13:16:00,
2013-04-29 08:21:00,64.8,64.2,29.87,SE,135,1.1,0.0,98,0.00,CLR,,0.00,WeatherDisplay:10.37,2013-04-29 13:21:00,
2013-04-29 08:26:00,65.1,64.5,29.87,NE,45,1.1,0.0,98,0.00,CLR,,0.00,WeatherDisplay:10.37,2013-04-29 13:26:00,
2013-04-29 08:31:00,65.3,64.7,29.88,NW,315,1.1,0.0,98,0.00,CLR,,0.00,WeatherDisplay:10.37,2013-04-29 13:31:00,
2013-04-29 08:36:00,65.5,64.9,29.88,West,270,0.0,0.0,98,0.00,CLR,,0.00,WeatherDisplay:10.37,2013-04-29 13:36:00,
2013-04-29 08:41:00,65.8,65.3,29.87,SE,135,1.1,0.0,98,0.00,CLR,,0.00,WeatherDisplay:10.37,2013-04-29 13:41:00,
2013-04-29 08:46:00,66.2,65.3,29.87,West,270,2.3,2.3,97,0.00,CLR,,0.00,WeatherDisplay:10.37,2013-04-29 13:46:00,
2013-04-29 08:51:00,66.2,65.3,29.87,West,270,2.3,2.3,97,0.00,CLR,,0.00,WeatherDisplay:10.37,2013-04-29 13:51:00,
2013-04-29 08:56:00,66.4,65.5,29.87,NW,315,1.1,0.0,97,0.00,CLR,,0.00,WeatherDisplay:10.37,2013-04-29 13:56:00,
2013-04-29 09:01:00,66.7,65.9,29.88,NW,315,1.6,1.6,97,0.00,CLR,,0.00,WeatherDisplay:10.37,2013-04-29 14:01:00,
2013-04-29 09:06:00,67.1,66.2,29.88,SE,135,1.1,0.0,97,0.00,CLR,,0.00,WeatherDisplay:10.37,2013-04-29 14:06:00,
2013-04-29 09:11:00,67.5,66.6,29.87,East,90,1.1,0.0,97,0.00,CLR,,0.00,WeatherDisplay:10.37,2013-04-29 14:11:00,
2013-04-29 09:16:00,67.8,66.9,29.88,SW,225,2.3,2.3,97,0.00,CLR,,0.00,WeatherDisplay:10.37,2013-04-29 14:16:00,
2013-04-29 09:21:00,68.2,67.0,29.88,West,270,1.1,0.0,96,0.00,CLR,,0.00,WeatherDisplay:10.37,2013-04-29 14:21:00,
2013-04-29 09:26:00,68.5,67.4,29.88,SE,135,1.1,0.0,96,0.00,CLR,,0.00,WeatherDisplay:10.37,2013-04-29 14:26:00,
2013-04-29 09:31:00,69.1,67.9,29.88,SW,225,1.1,0.0,96,0.00,CLR,,0.00,WeatherDisplay:10.37,2013-04-29 14:31:00,
2013-04-29 09:36:00,69.8,68.3,29.88,NW,315,2.3,0.0,95,0.00,CLR,,0.00,WeatherDisplay:10.37,2013-04-29 14:36:00,
2013-04-29 09:41:00,70.2,68.7,29.88,East,90,1.1,0.0,95,0.00,CLR,,0.00,WeatherDisplay:10.37,2013-04-29 14:41:00,
2013-04-29 09:46:00,70.5,68.7,29.88,NW,315,1.1,0.0,94,0.00,CLR,,0.00,WeatherDisplay:10.37,2013-04-29 14:46:00,
2013-04-29 09:51:00,70.9,68.8,29.88,NE,45,1.1,0.0,93,0.00,CLR,,0.00,WeatherDisplay:10.37,2013-04-29 14:51:00,
2013-04-29 09:56:00,71.1,68.6,29.88,West,270,1.1,0.0,92,0.00,CLR,,0.00,WeatherDisplay:10.37,2013-04-29 14:56:00,
2013-04-29 10:01:00,71.1,68.3,29.87,NW,315,1.1,0.0,91,0.00,CLR,,0.00,WeatherDisplay:10.37,2013-04-29 15:01:00,
2013-04-29 10:06:00,71.6,68.5,29.87,NW,315,1.1,0.0,90,0.00,CLR,,0.00,WeatherDisplay:10.37,2013-04-29 15:06:00,
2013-04-29 10:11:00,72.0,68.9,29.88,NW,315,1.1,1.1,90,0.00,CLR,,0.00,WeatherDisplay:10.37,2013-04-29 15:11:00,
2013-04-29 10:16:00,72.9,69.8,29.88,South,180,3.5,3.5,90,0.00,CLR,,0.00,WeatherDisplay:10.37,2013-04-29 15:16:00,
2013-04-29 10:21:00,74.1,70.7,29.88,SW,225,1.1,0.0,89,0.01,RA,,0.01,WeatherDisplay:10.37,2013-04-29 15:21:00,
2013-04-29 10:26:00,75.7,71.3,29.88,North,0,3.1,3.1,86,0.01,RA,,0.01,WeatherDisplay:10.37,2013-04-29 15:26:00,
2013-04-29 10:31:00,76.6,71.8,29.88,West,270,2.3,2.3,85,0.01,CLR,,0.01,WeatherDisplay:10.37,2013-04-29 15:31:00,
2013-04-29 10:36:00,77.7,71.8,29.88,West,270,3.5,3.5,82,0.01,CLR,,0.01,WeatherDisplay:10.37,2013-04-29 15:36:00,
2013-04-29 10:41:00,78.1,71.4,29.88,East,90,1.1,0.0,80,0.01,CLR,,0.01,WeatherDisplay:10.37,2013-04-29 15:41:00,
2013-04-29 10:46:00,77.4,70.7,29.88,West,270,2.3,0.0,80,0.01,CLR,,0.01,WeatherDisplay:10.37,2013-04-29 15:46:00,
2013-04-29 10:51:00,77.0,70.4,29.88,West,270,3.5,3.5,80,0.01,CLR,,0.01,WeatherDisplay:10.37,2013-04-29 15:51:00,
2013-04-29 10:56:00,77.5,70.5,29.88,NW,315,3.5,3.5,79,0.01,CLR,,0.01,WeatherDisplay:10.37,2013-04-29 15:56:00,
2013-04-29 11:01:00,78.4,71.0,29.88,SW,225,3.5,0.0,78,0.01,CLR,,0.01,WeatherDisplay:10.37,2013-04-29 16:01:00,
2013-04-29 11:06:00,78.1,69.5,29.87,North,0,1.1,0.0,75,0.01,CLR,,0.01,WeatherDisplay:10.37,2013-04-29 16:06:00,
2013-04-29 11:11:00,78.4,71.4,29.88,West,270,3.5,0.0,79,0.01,CLR,,0.01,WeatherDisplay:10.37,2013-04-29 16:11:00,
2013-04-29 11:16:00,79.5,71.3,29.88,SE,135,2.3,2.3,76,0.01,CLR,,0.01,WeatherDisplay:10.37,2013-04-29 16:16:00,
2013-04-29 11:21:00,80.8,70.9,29.87,East,90,2.3,2.3,72,0.00,CLR,,0.01,WeatherDisplay:10.37,2013-04-29 16:21:00,
2013-04-29 11:26:00,81.3,71.4,29.88,SE,135,3.5,0.0,72,0.00,CLR,,0.01,WeatherDisplay:10.37,2013-04-29 16:26:00,
2013-04-29 11:31:00,81.5,70.8,29.88,NE,45,2.3,2.3,70,0.00,CLR,,0.01,WeatherDisplay:10.37,2013-04-29 16:31:00,
2013-04-29 11:36:00,81.5,70.8,29.88,NE,45,2.3,2.3,70,0.00,CLR,,0.01,WeatherDisplay:10.37,2013-04-29 16:36:00,
2013-04-29 11:41:00,83.5,70.5,29.87,NW,315,2.3,2.3,65,0.00,CLR,,0.01,WeatherDisplay:10.37,2013-04-29 16:41:00,
2013-04-29 11:46:00,83.8,72.6,29.87,NW,315,2.3,2.3,69,0.00,CLR,,0.01,WeatherDisplay:10.37,2013-04-29 16:46:00,
2013-04-29 11:51:00,84.0,70.5,29.88,North,0,3.5,3.5,64,0.00,CLR,,0.01,WeatherDisplay:10.37,2013-04-29 16:51:00,
2013-04-29 11:56:00,83.7,71.1,29.87,East,90,2.3,2.3,66,0.00,CLR,,0.01,WeatherDisplay:10.37,2013-04-29 16:56:00,
2013-04-29 12:01:00,83.8,69.9,29.87,North,0,3.5,0.0,63,0.00,CLR,,0.01,WeatherDisplay:10.37,2013-04-29 17:01:00,
2013-04-29 12:06:00,83.5,70.0,29.87,NE,45,1.1,0.0,64,0.00,CLR,,0.01,WeatherDisplay:10.37,2013-04-29 17:06:00,
2013-04-29 12:11:00,83.7,70.2,29.87,NE,45,2.3,2.3,64,0.00,CLR,,0.01,WeatherDisplay:10.37,2013-04-29 17:11:00,
2013-04-29 12:16:00,82.8,69.8,29.86,North,0,3.5,3.5,65,0.00,CLR,,0.01,WeatherDisplay:10.37,2013-04-29 17:16:00,
2013-04-29 12:21:00,83.3,70.3,29.87,NE,45,2.3,0.0,65,0.00,CLR,,0.01,WeatherDisplay:10.37,2013-04-29 17:21:00,
2013-04-29 12:26:00,84.2,69.8,29.86,East,90,2.3,0.0,62,0.00,CLR,,0.01,WeatherDisplay:10.37,2013-04-29 17:26:00,
2013-04-29 12:31:00,83.1,69.7,29.86,NE,45,1.1,0.0,64,0.00,CLR,,0.01,WeatherDisplay:10.37,2013-04-29 17:31:00,
2013-04-29 12:36:00,83.1,69.7,29.86,NE,45,1.1,0.0,64,0.00,CLR,,0.01,WeatherDisplay:10.37,2013-04-29 17:36:00,
2013-04-29 12:41:00,83.8,69.9,29.85,South,180,1.1,0.0,63,0.00,CLR,,0.01,WeatherDisplay:10.37,2013-04-29 17:41:00,
2013-04-29 12:46:00,84.6,70.6,29.85,NW,315,1.6,1.6,63,0.00,CLR,,0.01,WeatherDisplay:10.37,2013-04-29 17:46:00,
2013-04-29 12:51:00,84.9,70.0,29.85,North,0,2.3,0.0,61,0.00,CLR,,0.01,WeatherDisplay:10.37,2013-04-29 17:51:00,
2013-04-29 12:56:00,85.1,70.6,29.85,SE,135,3.5,3.5,62,0.00,CLR,,0.01,WeatherDisplay:10.37,2013-04-29 17:56:00,
2013-04-29 13:01:00,86.2,69.7,29.85,North,0,2.3,2.3,58,0.00,CLR,,0.01,WeatherDisplay:10.37,2013-04-29 18:01:00,
2013-04-29 13:06:00,86.2,69.2,29.85,South,180,3.5,3.5,57,0.00,CLR,,0.01,WeatherDisplay:10.37,2013-04-29 18:06:00,
2013-04-29 13:11:00,85.1,69.2,29.85,West,270,3.5,3.5,59,0.00,CLR,,0.01,WeatherDisplay:10.37,2013-04-29 18:11:00,
2013-04-29 13:16:00,85.8,70.3,29.84,NW,315,2.3,0.0,60,0.00,CLR,,0.01,WeatherDisplay:10.37,2013-04-29 18:16:00,
2013-04-29 13:21:00,85.6,67.6,29.84,North,0,1.1,0.0,55,0.00,CLR,,0.01,WeatherDisplay:10.37,2013-04-29 18:21:00,
2013-04-29 13:26:00,84.0,67.7,29.84,SE,135,2.3,0.0,58,0.00,CLR,,0.01,WeatherDisplay:10.37,2013-04-29 18:26:00,
2013-04-29 13:31:00,83.3,68.4,29.84,SW,225,1.1,0.0,61,0.00,CLR,,0.01,WeatherDisplay:10.37,2013-04-29 18:31:00,
2013-04-29 13:36:00,83.3,68.4,29.84,SW,225,1.1,0.0,61,0.00,CLR,,0.01,WeatherDisplay:10.37,2013-04-29 18:36:00,
2013-04-29 13:41:00,86.0,69.0,29.83,SE,135,1.1,0.0,57,0.00,CLR,,0.01,WeatherDisplay:10.37,2013-04-29 18:41:00,
2013-04-29 13:46:00,87.6,68.9,29.83,NE,45,2.3,2.3,54,0.00,CLR,,0.01,WeatherDisplay:10.37,2013-04-29 18:46:00,
2013-04-29 13:51:00,87.1,69.5,29.83,South,180,0.0,0.0,56,0.00,CLR,,0.01,WeatherDisplay:10.37,2013-04-29 18:51:00,
2013-04-29 13:56:00,87.1,68.4,29.83,SE,135,3.5,0.0,54,0.00,CLR,,0.01,WeatherDisplay:10.37,2013-04-29 18:56:00,
2013-04-29 14:01:00,88.2,69.4,29.83,NW,315,3.5,0.0,54,0.00,CLR,,0.01,WeatherDisplay:10.37,2013-04-29 19:01:00,
2013-04-29 14:06:00,90.1,69.0,29.83,East,90,1.1,0.0,50,0.00,CLR,,0.01,WeatherDisplay:10.37,2013-04-29 19:06:00,
2013-04-29 14:11:00,91.2,66.3,29.83,South,180,1.1,0.0,44,0.00,CLR,,0.01,WeatherDisplay:10.37,2013-04-29 19:11:00,
2013-04-29 14:16:00,90.3,65.4,29.83,NE,45,2.3,0.0,44,0.00,CLR,,0.01,WeatherDisplay:10.37,2013-04-29 19:16:00,
2013-04-29 14:21:00,90.1,67.2,29.82,South,180,2.3,0.0,47,0.00,CLR,,0.01,WeatherDisplay:10.37,2013-04-29 19:21:00,
2013-04-29 14:26:00,91.4,64.4,29.82,SE,135,3.5,3.5,41,0.00,CLR,,0.01,WeatherDisplay:10.37,2013-04-29 19:26:00,
2013-04-29 14:31:00,91.8,64.0,29.82,South,180,1.1,0.0,40,0.00,CLR,,0.01,WeatherDisplay:10.37,2013-04-29 19:31:00,
2013-04-29 14:36:00,91.8,64.0,29.81,South,180,1.1,0.0,40,0.00,CLR,,0.01,WeatherDisplay:10.37,2013-04-29 19:36:00,
2013-04-29 14:41:00,92.3,65.2,29.81,ENE,68,2.3,2.3,41,0.00,CLR,,0.01,WeatherDisplay:10.37,2013-04-29 19:41:00,
2013-04-29 14:46:00,92.3,66.6,29.81,NW,315,2.3,0.0,43,0.00,CLR,,0.01,WeatherDisplay:10.37,2013-04-29 19:46:00,
2013-04-29 14:51:00,92.7,63.3,29.81,SE,135,2.3,0.0,38,0.00,CLR,,0.01,WeatherDisplay:10.37,2013-04-29 19:51:00,
2013-04-29 14:56:00,92.3,59.0,29.81,South,180,3.5,3.5,33,0.00,CLR,,0.01,WeatherDisplay:10.37,2013-04-29 19:56:00,
2013-04-29 15:01:00,91.9,60.4,29.80,NW,315,2.3,2.3,35,0.00,CLR,,0.01,WeatherDisplay:10.37,2013-04-29 20:01:00,
2013-04-29 15:06:00,91.6,64.6,29.80,NW,315,2.3,2.3,41,0.00,CLR,,0.01,WeatherDisplay:10.37,2013-04-29 20:06:00,
2013-04-29 15:11:00,91.6,64.6,29.80,East,90,2.3,2.3,41,0.00,CLR,,0.01,WeatherDisplay:10.37,2013-04-29 20:11:00,
2013-04-29 15:16:00,91.4,63.7,29.80,NW,315,3.5,0.0,40,0.00,CLR,,0.01,WeatherDisplay:10.37,2013-04-29 20:16:00,
2013-04-29 15:21:00,90.3,62.0,29.79,SE,135,2.3,0.0,39,0.00,CLR,,0.01,WeatherDisplay:10.37,2013-04-29 20:21:00,
2013-04-29 15:26:00,89.4,61.2,29.79,NE,45,1.1,0.0,39,0.00,CLR,,0.01,WeatherDisplay:10.37,2013-04-29 20:26:00,
2013-04-29 15:31:00,88.9,62.1,29.79,NE,45,3.5,3.5,41,0.00,CLR,,0.01,WeatherDisplay:10.37,2013-04-29 20:31:00,
2013-04-29 15:36:00,87.8,59.0,29.78,East,90,2.3,2.3,38,0.00,CLR,,0.01,WeatherDisplay:10.37,2013-04-29 20:36:00,
2013-04-29 15:41:00,87.4,58.7,29.78,SE,135,1.1,0.0,38,0.00,CLR,,0.01,WeatherDisplay:10.37,2013-04-29 20:41:00,
2013-04-29 15:46:00,87.6,58.9,29.78,NE,45,1.1,0.0,38,0.00,CLR,,0.01,WeatherDisplay:10.37,2013-04-29 20:46:00,
2013-04-29 15:51:00,87.4,61.5,29.77,West,270,3.5,3.5,42,0.00,CLR,,0.01,WeatherDisplay:10.37,2013-04-29 20:51:00,
2013-04-29 15:56:00,86.5,59.3,29.77,NW,315,2.3,2.3,40,0.00,CLR,,0.01,WeatherDisplay:10.37,2013-04-29 20:56:00,
2013-04-29 16:01:00,86.0,59.6,29.77,SE,135,1.1,0.0,41,0.00,CLR,,0.01,WeatherDisplay:10.37,2013-04-29 21:01:00,
2013-04-29 16:06:00,86.0,59.6,29.77,SE,135,1.1,0.0,41,0.00,CLR,,0.01,WeatherDisplay:10.37,2013-04-29 21:06:00,
2013-04-29 16:11:00,85.5,60.4,29.77,West,270,5.4,5.4,43,0.00,CLR,,0.01,WeatherDisplay:10.37,2013-04-29 21:11:00,
2013-04-29 16:16:00,85.5,58.4,29.77,North,0,2.3,0.0,40,0.00,CLR,,0.01,WeatherDisplay:10.37,2013-04-29 21:16:00,
2013-04-29 16:21:00,85.5,62.3,29.77,SE,135,3.5,0.0,46,0.00,CLR,,0.01,WeatherDisplay:10.37,2013-04-29 21:21:00,
2013-04-29 16:26:00,85.3,60.3,29.77,NW,315,1.1,0.0,43,0.00,CLR,,0.01,WeatherDisplay:10.37,2013-04-29 21:26:00,
2013-04-29 16:31:00,86.0,60.2,29.77,North,0,1.1,0.0,42,0.00,CLR,,0.01,WeatherDisplay:10.37,2013-04-29 21:31:00,
2013-04-29 16:36:00,86.2,59.0,29.77,SW,225,3.5,3.5,40,0.00,CLR,,0.01,WeatherDisplay:10.37,2013-04-29 21:36:00,
2013-04-29 16:41:00,86.5,57.9,29.76,South,180,3.5,3.5,38,0.00,CLR,,0.01,WeatherDisplay:10.37,2013-04-29 21:41:00,
2013-04-29 16:46:00,86.5,58.6,29.77,NE,45,3.5,3.5,39,0.00,CLR,,0.01,WeatherDisplay:10.37,2013-04-29 21:46:00,
2013-04-29 16:51:00,86.5,61.4,29.77,NE,45,1.1,1.1,43,0.00,CLR,,0.01,WeatherDisplay:10.37,2013-04-29 21:51:00,
2013-04-29 16:56:00,86.0,63.4,29.77,South,180,1.1,0.0,47,0.00,CLR,,0.01,WeatherDisplay:10.37,2013-04-29 21:56:00,
2013-04-29 17:01:00,85.3,64.0,29.76,SW,225,1.1,0.0,49,0.00,CLR,,0.01,WeatherDisplay:10.37,2013-04-29 22:01:00,
2013-04-29 17:06:00,85.3,64.0,29.77,SW,225,1.1,0.0,49,0.00,CLR,,0.01,WeatherDisplay:10.37,2013-04-29 22:06:00,
2013-04-29 17:11:00,84.0,63.4,29.77,SE,135,1.1,0.0,50,0.00,CLR,,0.01,WeatherDisplay:10.37,2013-04-29 22:11:00,
2013-04-29 17:16:00,83.7,63.0,29.76,NE,45,1.1,0.0,50,0.00,CLR,,0.01,WeatherDisplay:10.37,2013-04-29 22:16:00,
2013-04-29 17:21:00,83.3,63.8,29.76,North,0,1.1,0.0,52,0.00,CLR,,0.01,WeatherDisplay:10.37,2013-04-29 22:21:00,
2013-04-29 17:26:00,82.8,64.4,29.76,NW,315,1.1,0.0,54,0.00,CLR,,0.01,WeatherDisplay:10.37,2013-04-29 22:26:00,
2013-04-29 17:31:00,82.2,65.5,29.76,NW,315,1.1,0.0,57,0.00,CLR,,0.01,WeatherDisplay:10.37,2013-04-29 22:31:00,
2013-04-29 17:36:00,82.2,66.5,29.75,NW,315,1.1,0.0,59,0.00,CLR,,0.01,WeatherDisplay:10.37,2013-04-29 22:36:00,
2013-04-29 17:41:00,82.2,66.9,29.76,NW,315,0.0,0.0,60,0.00,CLR,,0.01,WeatherDisplay:10.37,2013-04-29 22:41:00,
2013-04-29 17:46:00,82.2,65.5,29.75,NW,315,0.0,0.0,57,0.00,CLR,,0.01,WeatherDisplay:10.37,2013-04-29 22:46:00,
2013-04-29 17:51:00,82.0,66.8,29.75,NW,315,1.1,0.0,60,0.00,CLR,,0.01,WeatherDisplay:10.37,2013-04-29 22:51:00,
2013-04-29 17:56:00,81.9,68.0,29.75,NW,315,1.1,0.0,63,0.00,CLR,,0.01,WeatherDisplay:10.37,2013-04-29 22:56:00,
2013-04-29 18:01:00,81.5,68.1,29.75,NW,315,0.0,0.0,64,0.00,CLR,,0.01,WeatherDisplay:10.37,2013-04-29 23:01:00,
2013-04-29 18:06:00,80.8,67.5,29.75,NW,315,0.0,0.0,64,0.00,CLR,,0.01,WeatherDisplay:10.37,2013-04-29 23:06:00,
2013-04-29 18:11:00,80.4,67.6,29.75,NW,315,0.0,0.0,65,0.00,CLR,,0.01,WeatherDisplay:10.37,2013-04-29 23:11:00,
2013-04-29 18:16:00,79.7,66.9,29.75,NW,315,0.0,0.0,65,0.00,CLR,,0.01,WeatherDisplay:10.37,2013-04-29 23:16:00,
2013-04-29 18:21:00,79.7,66.9,29.75,NW,315,0.0,0.0,65,0.00,CLR,,0.01,WeatherDisplay:10.37,2013-04-29 23:21:00,
2013-04-29 18:26:00,78.8,66.5,29.75,NW,315,0.0,0.0,66,0.00,CLR,,0.01,WeatherDisplay:10.37,2013-04-29 23:26:00,
2013-04-29 18:31:00,78.4,66.1,29.75,NW,315,0.0,0.0,66,0.00,CLR,,0.01,WeatherDisplay:10.37,2013-04-29 23:31:00,
2013-04-29 18:36:00,78.1,66.7,29.75,NW,315,0.0,0.0,68,0.00,CLR,,0.01,WeatherDisplay:10.37,2013-04-29 23:36:00,
2013-04-29 18:41:00,77.7,66.7,29.75,NW,315,0.0,0.0,69,0.00,CLR,,0.01,WeatherDisplay:10.37,2013-04-29 23:41:00,
2013-04-29 18:46:00,77.5,67.0,29.75,NW,315,0.0,0.0,70,0.00,CLR,,0.01,WeatherDisplay:10.37,2013-04-29 23:46:00,
2013-04-29 18:51:00,77.2,67.0,29.75,NW,315,0.0,0.0,71,0.00,CLR,,0.01,WeatherDisplay:10.37,2013-04-29 23:51:00,
2013-04-29 18:56:00,76.8,66.7,29.75,NW,315,0.0,0.0,71,0.00,CLR,,0.01,WeatherDisplay:10.37,2013-04-29 23:56:00,
2013-04-29 19:01:00,76.5,66.8,29.76,NW,315,0.0,0.0,72,0.00,CLR,,0.01,WeatherDisplay:10.37,2013-04-30 00:01:00,
2013-04-29 19:06:00,76.1,66.4,29.75,NW,315,0.0,0.0,72,0.00,CLR,,0.01,WeatherDisplay:10.37,2013-04-30 00:06:00,
2013-04-29 19:11:00,75.6,66.3,29.75,NW,315,0.0,0.0,73,0.00,CLR,,0.01,WeatherDisplay:10.37,2013-04-30 00:11:00,
2013-04-29 19:16:00,75.2,65.9,29.75,NW,315,0.0,0.0,73,0.00,CLR,,0.01,WeatherDisplay:10.37,2013-04-30 00:16:00,
2013-04-29 19:21:00,75.2,66.3,29.75,NW,315,0.0,0.0,74,0.00,CLR,,0.01,WeatherDisplay:10.37,2013-04-30 00:21:00,
2013-04-29 19:26:00,74.3,65.9,29.75,NW,315,0.0,0.0,75,0.00,CLR,,0.01,WeatherDisplay:10.37,2013-04-30 00:26:00,
2013-04-29 19:31:00,73.9,65.9,29.76,NW,315,0.0,0.0,76,0.00,CLR,,0.01,WeatherDisplay:10.37,2013-04-30 00:31:00,
2013-04-29 19:36:00,73.6,65.5,29.75,NW,315,0.0,0.0,76,0.00,CLR,,0.01,WeatherDisplay:10.37,2013-04-30 00:36:00,
2013-04-29 19:41:00,72.9,65.2,29.75,NW,315,0.0,0.0,77,0.00,CLR,,0.01,WeatherDisplay:10.37,2013-04-30 00:41:00,
2013-04-29 19:46:00,72.3,64.7,29.75,NW,315,0.0,0.0,77,0.00,CLR,,0.01,WeatherDisplay:10.37,2013-04-30 00:46:00,
2013-04-29 19:51:00,72.0,64.7,29.75,NW,315,0.0,0.0,78,0.00,CLR,,0.01,WeatherDisplay:10.37,2013-04-30 00:51:00,
2013-04-29 19:56:00,71.6,64.4,29.76,NW,315,0.0,0.0,78,0.00,CLR,,0.01,WeatherDisplay:10.37,2013-04-30 00:56:00,
2013-04-29 20:01:00,71.1,64.2,29.75,NW,315,0.0,0.0,79,0.00,CLR,,0.01,WeatherDisplay:10.37,2013-04-30 01:01:00,
2013-04-29 20:06:00,70.5,64.0,29.75,NW,315,1.1,0.0,80,0.00,CLR,,0.01,WeatherDisplay:10.37,2013-04-30 01:06:00,
2013-04-29 20:11:00,70.2,64.1,29.76,North,0,1.1,0.0,81,0.00,CLR,,0.01,WeatherDisplay:10.37,2013-04-30 01:11:00,
2013-04-29 20:16:00,69.6,63.5,29.75,North,0,0.0,0.0,81,0.00,CLR,,0.01,WeatherDisplay:10.37,2013-04-30 01:16:00,
2013-04-29 20:21:00,69.4,63.7,29.76,North,0,0.0,0.0,82,0.00,CLR,,0.01,WeatherDisplay:10.37,2013-04-30 01:21:00,
2013-04-29 20:26:00,69.1,63.7,29.76,North,0,0.0,0.0,83,0.00,CLR,,0.01,WeatherDisplay:10.37,2013-04-30 01:26:00,
2013-04-29 20:31:00,68.7,63.3,29.76,North,0,0.0,0.0,83,0.00,CLR,,0.01,WeatherDisplay:10.37,2013-04-30 01:31:00,
2013-04-29 20:36:00,68.5,63.5,29.76,North,0,0.0,0.0,84,0.00,CLR,,0.01,WeatherDisplay:10.37,2013-04-30 01:36:00,
2013-04-29 20:41:00,68.4,63.3,29.76,NW,315,1.1,0.0,84,0.00,CLR,,0.01,WeatherDisplay:10.37,2013-04-30 01:41:00,
2013-04-29 20:46:00,68.2,63.2,29.77,NW,315,0.0,0.0,84,0.00,CLR,,0.01,WeatherDisplay:10.37,2013-04-30 01:46:00,
2013-04-29 20:51:00,68.2,63.2,29.77,NW,315,0.0,0.0,84,0.00,CLR,,0.01,WeatherDisplay:10.37,2013-04-30 01:51:00,
2013-04-29 20:56:00,67.3,62.6,29.77,NW,315,1.1,0.0,85,0.00,CLR,,0.01,WeatherDisplay:10.37,2013-04-30 01:56:00,
2013-04-29 21:01:00,67.5,62.8,29.77,NW,315,1.1,0.0,85,0.00,CLR,,0.01,WeatherDisplay:10.37,2013-04-30 02:01:00,
2013-04-29 21:06:00,67.5,62.8,29.77,NW,315,1.1,0.0,85,0.00,CLR,,0.01,WeatherDisplay:10.37,2013-04-30 02:06:00,
2013-04-29 21:11:00,66.7,62.4,29.77,North,0,0.0,0.0,86,0.00,CLR,,0.01,WeatherDisplay:10.37,2013-04-30 02:11:00,
2013-04-29 21:16:00,66.6,62.2,29.77,North,0,0.0,0.0,86,0.00,CLR,,0.01,WeatherDisplay:10.37,2013-04-30 02:16:00,
2013-04-29 21:21:00,66.6,62.6,29.78,West,270,1.1,0.0,87,0.00,CLR,,0.01,WeatherDisplay:10.37,2013-04-30 02:21:00,
2013-04-29 21:26:00,66.6,62.6,29.78,SE,135,0.0,0.0,87,0.00,CLR,,0.01,WeatherDisplay:10.37,2013-04-30 02:26:00,
2013-04-29 21:31:00,66.4,62.4,29.78,SE,135,0.0,0.0,87,0.00,CLR,,0.01,WeatherDisplay:10.37,2013-04-30 02:31:00,
2013-04-29 21:36:00,66.2,62.2,29.78,SE,135,0.0,0.0,87,0.00,CLR,,0.01,WeatherDisplay:10.37,2013-04-30 02:36:00,
2013-04-29 21:41:00,66.2,62.5,29.79,SE,135,0.0,0.0,88,0.00,CLR,,0.01,WeatherDisplay:10.37,2013-04-30 02:41:00,
2013-04-29 21:46:00,66.0,62.4,29.79,NE,45,0.0,0.0,88,0.00,CLR,,0.01,WeatherDisplay:10.37,2013-04-30 02:46:00,
2013-04-29 21:51:00,66.0,62.4,29.79,NE,45,0.0,0.0,88,0.00,CLR,,0.01,WeatherDisplay:10.37,2013-04-30 02:51:00,
2013-04-29 21:56:00,65.8,62.2,29.79,NE,45,0.0,0.0,88,0.00,CLR,,0.01,WeatherDisplay:10.37,2013-04-30 02:56:00,
2013-04-29 22:01:00,65.8,62.2,29.79,NE,45,0.0,0.0,88,0.00,CLR,,0.01,WeatherDisplay:10.37,2013-04-30 03:01:00,
2013-04-29 22:07:00,65.8,62.2,29.79,NE,45,0.0,0.0,88,0.00,CLR,,0.01,WeatherDisplay:10.37,2013-04-30 03:07:00,
2013-04-29 22:12:00,65.5,61.8,29.79,West,270,0.0,0.0,88,0.00,CLR,,0.01,WeatherDisplay:10.37,2013-04-30 03:12:00,
2013-04-29 22:17:00,65.3,61.7,29.79,West,270,0.0,0.0,88,0.00,CLR,,0.01,WeatherDisplay:10.37,2013-04-30 03:17:00,
2013-04-29 22:22:00,65.3,62.0,29.79,West,270,0.0,0.0,89,0.00,CLR,,0.01,WeatherDisplay:10.37,2013-04-30 03:22:00,
2013-04-29 22:27:00,65.1,61.8,29.78,West,270,0.0,0.0,89,0.00,CLR,,0.01,WeatherDisplay:10.37,2013-04-30 03:27:00,
2013-04-29 22:32:00,64.9,61.6,29.79,West,270,0.0,0.0,89,0.00,CLR,,0.01,WeatherDisplay:10.37,2013-04-30 03:32:00,
2013-04-29 22:37:00,64.8,61.4,29.78,West,270,0.0,0.0,89,0.00,CLR,,0.01,WeatherDisplay:10.37,2013-04-30 03:37:00,
2013-04-29 22:42:00,64.6,61.3,29.78,North,0,0.0,0.0,89,0.00,CLR,,0.01,WeatherDisplay:10.37,2013-04-30 03:42:00,
2013-04-29 22:47:00,64.4,61.1,29.78,North,0,0.0,0.0,89,0.00,CLR,,0.01,WeatherDisplay:10.37,2013-04-30 03:47:00,
2013-04-29 22:52:00,64.2,60.9,29.78,North,0,0.0,0.0,89,0.00,CLR,,0.01,WeatherDisplay:10.37,2013-04-30 03:52:00,
2013-04-29 22:57:00,64.0,60.7,29.78,North,0,0.0,0.0,89,0.00,CLR,,0.01,WeatherDisplay:10.37,2013-04-30 03:57:00,
2013-04-29 23:01:00,64.0,60.7,29.78,North,0,0.0,0.0,89,0.00,CLR,,0.01,WeatherDisplay:10.37,2013-04-30 04:01:00,
2013-04-29 23:06:00,64.0,60.7,29.78,North,0,0.0,0.0,89,0.00,CLR,,0.01,WeatherDisplay:10.37,2013-04-30 04:06:00,
2013-04-29 23:11:00,63.7,60.7,29.78,North,0,0.0,0.0,90,0.00,CLR,,0.01,WeatherDisplay:10.37,2013-04-30 04:11:00,
2013-04-29 23:16:00,63.7,60.7,29.79,North,0,0.0,0.0,90,0.00,CLR,,0.01,WeatherDisplay:10.37,2013-04-30 04:16:00,
2013-04-29 23:21:00,63.5,60.5,29.79,North,0,0.0,0.0,90,0.00,CLR,,0.01,WeatherDisplay:10.37,2013-04-30 04:21:00,
2013-04-29 23:26:00,63.3,60.3,29.79,North,0,0.0,0.0,90,0.00,CLR,,0.01,WeatherDisplay:10.37,2013-04-30 04:26:00,
2013-04-29 23:31:00,63.1,60.2,29.79,North,0,0.0,0.0,90,0.00,CLR,,0.01,WeatherDisplay:10.37,2013-04-30 04:31:00,
2013-04-29 23:36:00,63.1,60.5,29.79,North,0,0.0,0.0,91,0.00,CLR,,0.01,WeatherDisplay:10.37,2013-04-30 04:36:00,
2013-04-29 23:41:00,63.0,60.3,29.79,North,0,0.0,0.0,91,0.00,CLR,,0.01,WeatherDisplay:10.37,2013-04-30 04:41:00,
2013-04-29 23:46:00,62.8,60.1,29.79,North,0,0.0,0.0,91,0.00,CLR,,0.01,WeatherDisplay:10.37,2013-04-30 04:46:00,
2013-04-29 23:51:00,62.8,60.1,29.79,North,0,0.0,0.0,91,0.00,CLR,,0.01,WeatherDisplay:10.37,2013-04-30 04:51:00,
2013-04-29 23:56:00,62.8,60.1,29.78,North,0,0.0,0.0,91,0.00,CLR,,0.01,WeatherDisplay:10.37,2013-04-30 04:56:00,